sensor_id;sensor_type;location;lat;lon;timestamp;P1;durP1;ratioP1;P2;durP2;ratioP2
73850;SDS011;62190;51.548;5.688;2023-04-29T00:00:24;87.62;;;35.90;;
73850;SDS011;62190;51.548;5.688;2023-04-29T00:02:54;85.28;;;35.92;;
73850;SDS011;62190;51.548;5.688;2023-04-29T00:05:23;88.47;;;37.05;;
73850;SDS011;62190;51.548;5.688;2023-04-29T00:07:55;85.38;;;37.00;;
73850;SDS011;62190;51.548;5.688;2023-04-29T00:10:22;87.27;;;35.58;;
73850;SDS011;62190;51.548;5.688;2023-04-29T00:12:53;77.65;;;34.13;;
73850;SDS011;62190;51.548;5.688;2023-04-29T00:15:22;79.65;;;35.52;;
73850;SDS011;62190;51.548;5.688;2023-04-29T00:17:52;80.97;;;35.43;;
73850;SDS011;62190;51.548;5.688;2023-04-29T00:20:22;70.40;;;33.60;;
73850;SDS011;62190;51.548;5.688;2023-04-29T00:22:58;66.42;;;33.25;;
73850;SDS011;62190;51.548;5.688;2023-04-29T00:25:33;62.08;;;29.70;;
73850;SDS011;62190;51.548;5.688;2023-04-29T00:28:03;66.57;;;32.98;;
73850;SDS011;62190;51.548;5.688;2023-04-29T00:30:34;64.92;;;29.25;;
73850;SDS011;62190;51.548;5.688;2023-04-29T00:33:04;68.45;;;32.00;;
73850;SDS011;62190;51.548;5.688;2023-04-29T00:35:39;67.95;;;32.55;;
73850;SDS011;62190;51.548;5.688;2023-04-29T00:38:10;70.25;;;34.15;;
73850;SDS011;62190;51.548;5.688;2023-04-29T00:40:40;77.10;;;34.53;;
73850;SDS011;62190;51.548;5.688;2023-04-29T00:43:08;76.57;;;33.80;;
73850;SDS011;62190;51.548;5.688;2023-04-29T00:45:36;69.27;;;32.25;;
73850;SDS011;62190;51.548;5.688;2023-04-29T00:48:07;68.07;;;32.78;;
73850;SDS011;62190;51.548;5.688;2023-04-29T00:50:35;62.95;;;30.90;;
73850;SDS011;62190;51.548;5.688;2023-04-29T00:53:06;53.30;;;27.48;;
73850;SDS011;62190;51.548;5.688;2023-04-29T00:55:34;49.90;;;25.77;;
73850;SDS011;62190;51.548;5.688;2023-04-29T00:58:20;52.00;;;27.20;;
73850;SDS011;62190;51.548;5.688;2023-04-29T01:00:56;52.15;;;26.80;;
73850;SDS011;62190;51.548;5.688;2023-04-29T01:03:31;51.90;;;27.48;;
73850;SDS011;62190;51.548;5.688;2023-04-29T01:06:06;51.53;;;26.70;;
73850;SDS011;62190;51.548;5.688;2023-04-29T01:11:38;55.12;;;27.22;;
73850;SDS011;62190;51.548;5.688;2023-04-29T01:14:12;49.75;;;26.62;;
73850;SDS011;62190;51.548;5.688;2023-04-29T01:16:43;53.63;;;27.25;;
73850;SDS011;62190;51.548;5.688;2023-04-29T01:20:01;59.70;;;27.87;;
73850;SDS011;62190;51.548;5.688;2023-04-29T01:22:07;54.00;;;27.58;;
73850;SDS011;62190;51.548;5.688;2023-04-29T01:24:40;54.58;;;27.07;;
73850;SDS011;62190;51.548;5.688;2023-04-29T01:27:22;55.85;;;26.97;;
73850;SDS011;62190;51.548;5.688;2023-04-29T01:33:02;59.00;;;30.37;;
73850;SDS011;62190;51.548;5.688;2023-04-29T01:38:32;68.97;;;34.70;;
73850;SDS011;62190;51.548;5.688;2023-04-29T01:43:55;69.85;;;37.15;;
73850;SDS011;62190;51.548;5.688;2023-04-29T01:46:26;72.80;;;37.65;;
73850;SDS011;62190;51.548;5.688;2023-04-29T01:48:56;77.47;;;38.30;;
73850;SDS011;62190;51.548;5.688;2023-04-29T01:51:28;72.45;;;36.80;;
73850;SDS011;62190;51.548;5.688;2023-04-29T01:53:59;65.60;;;36.17;;
73850;SDS011;62190;51.548;5.688;2023-04-29T01:56:32;73.57;;;37.03;;
73850;SDS011;62190;51.548;5.688;2023-04-29T01:59:07;78.67;;;36.83;;
73850;SDS011;62190;51.548;5.688;2023-04-29T02:01:40;71.65;;;34.43;;
73850;SDS011;62190;51.548;5.688;2023-04-29T02:04:17;69.22;;;34.18;;
73850;SDS011;62190;51.548;5.688;2023-04-29T02:06:48;79.30;;;35.98;;
73850;SDS011;62190;51.548;5.688;2023-04-29T02:09:22;69.67;;;33.25;;
73850;SDS011;62190;51.548;5.688;2023-04-29T02:11:55;78.15;;;35.48;;
73850;SDS011;62190;51.548;5.688;2023-04-29T02:14:30;70.35;;;34.48;;
73850;SDS011;62190;51.548;5.688;2023-04-29T02:17:04;74.45;;;34.15;;
73850;SDS011;62190;51.548;5.688;2023-04-29T02:19:38;77.67;;;34.73;;
73850;SDS011;62190;51.548;5.688;2023-04-29T02:22:11;70.35;;;34.13;;
73850;SDS011;62190;51.548;5.688;2023-04-29T02:24:50;70.12;;;32.50;;
73850;SDS011;62190;51.548;5.688;2023-04-29T02:27:29;70.90;;;30.80;;
73850;SDS011;62190;51.548;5.688;2023-04-29T02:29:59;73.40;;;32.55;;
73850;SDS011;62190;51.548;5.688;2023-04-29T02:32:29;72.82;;;32.70;;
73850;SDS011;62190;51.548;5.688;2023-04-29T02:35:01;72.95;;;34.63;;
73850;SDS011;62190;51.548;5.688;2023-04-29T02:37:36;70.17;;;32.75;;
73850;SDS011;62190;51.548;5.688;2023-04-29T02:40:09;69.62;;;32.50;;
73850;SDS011;62190;51.548;5.688;2023-04-29T02:42:40;75.72;;;33.75;;
73850;SDS011;62190;51.548;5.688;2023-04-29T02:47:55;84.83;;;35.52;;
73850;SDS011;62190;51.548;5.688;2023-04-29T02:50:33;76.20;;;35.55;;
73850;SDS011;62190;51.548;5.688;2023-04-29T02:53:06;80.55;;;35.70;;
73850;SDS011;62190;51.548;5.688;2023-04-29T02:55:35;79.60;;;35.63;;
73850;SDS011;62190;51.548;5.688;2023-04-29T02:58:06;83.05;;;35.03;;
73850;SDS011;62190;51.548;5.688;2023-04-29T03:00:35;74.95;;;34.88;;
73850;SDS011;62190;51.548;5.688;2023-04-29T03:03:02;76.05;;;34.45;;
73850;SDS011;62190;51.548;5.688;2023-04-29T03:05:30;75.17;;;34.75;;
73850;SDS011;62190;51.548;5.688;2023-04-29T03:07:57;84.22;;;35.78;;
73850;SDS011;62190;51.548;5.688;2023-04-29T03:10:24;74.30;;;33.98;;
73850;SDS011;62190;51.548;5.688;2023-04-29T03:12:52;82.17;;;35.78;;
73850;SDS011;62190;51.548;5.688;2023-04-29T03:15:19;81.17;;;36.77;;
73850;SDS011;62190;51.548;5.688;2023-04-29T03:17:48;89.37;;;36.88;;
73850;SDS011;62190;51.548;5.688;2023-04-29T03:20:15;85.80;;;35.00;;
73850;SDS011;62190;51.548;5.688;2023-04-29T03:22:44;81.53;;;35.28;;
73850;SDS011;62190;51.548;5.688;2023-04-29T03:25:11;77.12;;;34.27;;
73850;SDS011;62190;51.548;5.688;2023-04-29T03:27:38;79.37;;;35.75;;
73850;SDS011;62190;51.548;5.688;2023-04-29T03:30:06;86.05;;;34.40;;
73850;SDS011;62190;51.548;5.688;2023-04-29T03:32:34;91.57;;;35.90;;
73850;SDS011;62190;51.548;5.688;2023-04-29T03:35:01;83.87;;;35.03;;
73850;SDS011;62190;51.548;5.688;2023-04-29T03:37:29;77.53;;;33.13;;
73850;SDS011;62190;51.548;5.688;2023-04-29T03:39:57;82.05;;;33.23;;
73850;SDS011;62190;51.548;5.688;2023-04-29T03:42:24;81.95;;;34.15;;
73850;SDS011;62190;51.548;5.688;2023-04-29T03:44:51;73.75;;;31.50;;
73850;SDS011;62190;51.548;5.688;2023-04-29T03:47:19;68.28;;;30.75;;
73850;SDS011;62190;51.548;5.688;2023-04-29T03:49:46;76.65;;;32.10;;
73850;SDS011;62190;51.548;5.688;2023-04-29T03:52:13;73.97;;;32.20;;
73850;SDS011;62190;51.548;5.688;2023-04-29T03:54:41;68.15;;;30.20;;
73850;SDS011;62190;51.548;5.688;2023-04-29T03:57:08;66.22;;;30.65;;
73850;SDS011;62190;51.548;5.688;2023-04-29T03:59:35;66.72;;;31.70;;
73850;SDS011;62190;51.548;5.688;2023-04-29T04:02:03;66.97;;;30.95;;
73850;SDS011;62190;51.548;5.688;2023-04-29T04:04:30;63.73;;;29.07;;
73850;SDS011;62190;51.548;5.688;2023-04-29T04:06:58;62.65;;;28.98;;
73850;SDS011;62190;51.548;5.688;2023-04-29T04:09:25;63.48;;;29.48;;
73850;SDS011;62190;51.548;5.688;2023-04-29T04:11:52;71.02;;;32.88;;
73850;SDS011;62190;51.548;5.688;2023-04-29T04:14:20;61.60;;;30.85;;
73850;SDS011;62190;51.548;5.688;2023-04-29T04:16:47;69.90;;;32.35;;
73850;SDS011;62190;51.548;5.688;2023-04-29T04:19:15;63.20;;;32.00;;
73850;SDS011;62190;51.548;5.688;2023-04-29T04:21:42;69.25;;;31.07;;
73850;SDS011;62190;51.548;5.688;2023-04-29T04:24:12;74.70;;;33.30;;
73850;SDS011;62190;51.548;5.688;2023-04-29T04:26:40;67.50;;;31.15;;
73850;SDS011;62190;51.548;5.688;2023-04-29T04:29:09;71.53;;;33.70;;
73850;SDS011;62190;51.548;5.688;2023-04-29T04:31:36;81.65;;;36.33;;
73850;SDS011;62190;51.548;5.688;2023-04-29T04:34:03;65.05;;;32.13;;
73850;SDS011;62190;51.548;5.688;2023-04-29T04:36:31;67.03;;;32.28;;
73850;SDS011;62190;51.548;5.688;2023-04-29T04:38:58;72.82;;;32.93;;
73850;SDS011;62190;51.548;5.688;2023-04-29T04:41:25;70.92;;;31.48;;
73850;SDS011;62190;51.548;5.688;2023-04-29T04:43:54;70.00;;;33.70;;
73850;SDS011;62190;51.548;5.688;2023-04-29T04:46:22;63.70;;;32.67;;
73850;SDS011;62190;51.548;5.688;2023-04-29T04:48:49;67.32;;;31.00;;
73850;SDS011;62190;51.548;5.688;2023-04-29T04:51:16;63.10;;;31.20;;
73850;SDS011;62190;51.548;5.688;2023-04-29T04:53:44;67.58;;;32.50;;
73850;SDS011;62190;51.548;5.688;2023-04-29T04:56:11;58.42;;;28.23;;
73850;SDS011;62190;51.548;5.688;2023-04-29T04:58:38;62.78;;;29.35;;
73850;SDS011;62190;51.548;5.688;2023-04-29T05:01:07;58.90;;;29.98;;
73850;SDS011;62190;51.548;5.688;2023-04-29T05:03:35;62.67;;;31.02;;
73850;SDS011;62190;51.548;5.688;2023-04-29T05:06:02;64.77;;;29.85;;
73850;SDS011;62190;51.548;5.688;2023-04-29T05:08:30;55.83;;;27.80;;
73850;SDS011;62190;51.548;5.688;2023-04-29T05:10:57;56.02;;;27.82;;
73850;SDS011;62190;51.548;5.688;2023-04-29T05:13:25;58.40;;;29.40;;
73850;SDS011;62190;51.548;5.688;2023-04-29T05:15:54;56.13;;;28.42;;
73850;SDS011;62190;51.548;5.688;2023-04-29T05:18:22;54.77;;;28.83;;
73850;SDS011;62190;51.548;5.688;2023-04-29T05:20:49;57.83;;;27.50;;
73850;SDS011;62190;51.548;5.688;2023-04-29T05:23:17;56.98;;;28.27;;
73850;SDS011;62190;51.548;5.688;2023-04-29T05:25:44;53.28;;;26.20;;
73850;SDS011;62190;51.548;5.688;2023-04-29T05:28:12;57.08;;;28.95;;
73850;SDS011;62190;51.548;5.688;2023-04-29T05:30:39;52.58;;;27.75;;
73850;SDS011;62190;51.548;5.688;2023-04-29T05:33:06;49.50;;;27.87;;
73850;SDS011;62190;51.548;5.688;2023-04-29T05:35:34;50.78;;;26.57;;
73850;SDS011;62190;51.548;5.688;2023-04-29T05:38:02;52.80;;;27.02;;
73850;SDS011;62190;51.548;5.688;2023-04-29T05:40:30;51.92;;;25.37;;
73850;SDS011;62190;51.548;5.688;2023-04-29T05:42:57;55.08;;;27.98;;
73850;SDS011;62190;51.548;5.688;2023-04-29T05:45:25;48.90;;;26.00;;
73850;SDS011;62190;51.548;5.688;2023-04-29T05:47:52;52.13;;;26.60;;
73850;SDS011;62190;51.548;5.688;2023-04-29T05:50:20;48.50;;;25.00;;
73850;SDS011;62190;51.548;5.688;2023-04-29T05:52:48;47.83;;;25.43;;
73850;SDS011;62190;51.548;5.688;2023-04-29T05:55:18;51.35;;;26.42;;
73850;SDS011;62190;51.548;5.688;2023-04-29T05:57:47;44.83;;;25.65;;
73850;SDS011;62190;51.548;5.688;2023-04-29T06:00:14;54.65;;;26.68;;
73850;SDS011;62190;51.548;5.688;2023-04-29T06:02:42;50.60;;;26.68;;
73850;SDS011;62190;51.548;5.688;2023-04-29T06:05:10;53.10;;;25.20;;
73850;SDS011;62190;51.548;5.688;2023-04-29T06:07:38;44.27;;;23.27;;
73850;SDS011;62190;51.548;5.688;2023-04-29T06:10:05;46.63;;;25.70;;
73850;SDS011;62190;51.548;5.688;2023-04-29T06:12:33;47.73;;;24.05;;
73850;SDS011;62190;51.548;5.688;2023-04-29T06:15:01;45.67;;;24.43;;
73850;SDS011;62190;51.548;5.688;2023-04-29T06:17:28;47.50;;;24.85;;
73850;SDS011;62190;51.548;5.688;2023-04-29T06:19:56;46.35;;;24.95;;
73850;SDS011;62190;51.548;5.688;2023-04-29T06:22:23;43.68;;;24.87;;
73850;SDS011;62190;51.548;5.688;2023-04-29T06:24:51;45.10;;;24.63;;
73850;SDS011;62190;51.548;5.688;2023-04-29T06:27:18;46.92;;;24.30;;
73850;SDS011;62190;51.548;5.688;2023-04-29T06:29:45;45.55;;;25.05;;
73850;SDS011;62190;51.548;5.688;2023-04-29T06:32:13;43.05;;;24.18;;
73850;SDS011;62190;51.548;5.688;2023-04-29T06:34:40;42.93;;;22.60;;
73850;SDS011;62190;51.548;5.688;2023-04-29T06:37:08;45.78;;;25.10;;
73850;SDS011;62190;51.548;5.688;2023-04-29T06:39:35;46.45;;;24.98;;
73850;SDS011;62190;51.548;5.688;2023-04-29T06:42:02;50.33;;;25.97;;
73850;SDS011;62190;51.548;5.688;2023-04-29T06:44:30;45.33;;;24.63;;
73850;SDS011;62190;51.548;5.688;2023-04-29T06:46:57;49.45;;;25.12;;
73850;SDS011;62190;51.548;5.688;2023-04-29T06:49:24;47.83;;;26.27;;
73850;SDS011;62190;51.548;5.688;2023-04-29T06:51:52;45.75;;;24.15;;
73850;SDS011;62190;51.548;5.688;2023-04-29T06:54:19;42.80;;;23.60;;
73850;SDS011;62190;51.548;5.688;2023-04-29T06:56:46;43.33;;;23.80;;
73850;SDS011;62190;51.548;5.688;2023-04-29T06:59:14;38.58;;;22.45;;
73850;SDS011;62190;51.548;5.688;2023-04-29T07:01:43;39.20;;;21.33;;
73850;SDS011;62190;51.548;5.688;2023-04-29T07:04:10;37.10;;;22.05;;
73850;SDS011;62190;51.548;5.688;2023-04-29T07:06:38;35.33;;;21.73;;
73850;SDS011;62190;51.548;5.688;2023-04-29T07:09:07;39.05;;;22.05;;
73850;SDS011;62190;51.548;5.688;2023-04-29T07:11:34;34.85;;;20.15;;
73850;SDS011;62190;51.548;5.688;2023-04-29T07:14:01;33.25;;;20.32;;
73850;SDS011;62190;51.548;5.688;2023-04-29T07:16:28;34.75;;;21.20;;
73850;SDS011;62190;51.548;5.688;2023-04-29T07:18:56;36.58;;;21.37;;
73850;SDS011;62190;51.548;5.688;2023-04-29T07:21:23;35.48;;;21.52;;
73850;SDS011;62190;51.548;5.688;2023-04-29T07:23:51;32.65;;;19.73;;
73850;SDS011;62190;51.548;5.688;2023-04-29T07:26:19;30.12;;;19.52;;
73850;SDS011;62190;51.548;5.688;2023-04-29T07:28:47;31.15;;;19.10;;
73850;SDS011;62190;51.548;5.688;2023-04-29T07:31:15;31.05;;;21.15;;
73850;SDS011;62190;51.548;5.688;2023-04-29T07:33:43;31.73;;;19.90;;
73850;SDS011;62190;51.548;5.688;2023-04-29T07:36:12;32.85;;;17.92;;
73850;SDS011;62190;51.548;5.688;2023-04-29T07:38:41;29.05;;;17.55;;
73850;SDS011;62190;51.548;5.688;2023-04-29T07:41:08;30.90;;;16.97;;
73850;SDS011;62190;51.548;5.688;2023-04-29T07:43:36;24.57;;;15.85;;
73850;SDS011;62190;51.548;5.688;2023-04-29T07:46:03;29.10;;;17.37;;
73850;SDS011;62190;51.548;5.688;2023-04-29T07:48:35;25.02;;;16.02;;
73850;SDS011;62190;51.548;5.688;2023-04-29T07:51:02;25.05;;;16.50;;
73850;SDS011;62190;51.548;5.688;2023-04-29T07:53:31;24.80;;;17.77;;
73850;SDS011;62190;51.548;5.688;2023-04-29T07:55:58;27.82;;;17.52;;
73850;SDS011;62190;51.548;5.688;2023-04-29T07:58:27;26.73;;;17.92;;
73850;SDS011;62190;51.548;5.688;2023-04-29T08:00:54;26.75;;;17.25;;
73850;SDS011;62190;51.548;5.688;2023-04-29T08:03:21;28.05;;;17.30;;
73850;SDS011;62190;51.548;5.688;2023-04-29T08:05:49;27.45;;;16.85;;
73850;SDS011;62190;51.548;5.688;2023-04-29T08:08:18;33.20;;;18.73;;
73850;SDS011;62190;51.548;5.688;2023-04-29T08:10:45;27.73;;;17.37;;
73850;SDS011;62190;51.548;5.688;2023-04-29T08:13:12;29.65;;;17.85;;
73850;SDS011;62190;51.548;5.688;2023-04-29T08:15:40;26.73;;;17.80;;
73850;SDS011;62190;51.548;5.688;2023-04-29T08:18:08;26.73;;;17.65;;
73850;SDS011;62190;51.548;5.688;2023-04-29T08:20:35;28.85;;;18.15;;
73850;SDS011;62190;51.548;5.688;2023-04-29T08:23:02;22.50;;;15.78;;
73850;SDS011;62190;51.548;5.688;2023-04-29T08:25:30;27.67;;;17.62;;
73850;SDS011;62190;51.548;5.688;2023-04-29T08:27:57;20.15;;;15.20;;
73850;SDS011;62190;51.548;5.688;2023-04-29T08:30:24;24.25;;;15.98;;
73850;SDS011;62190;51.548;5.688;2023-04-29T08:32:52;24.45;;;15.70;;
73850;SDS011;62190;51.548;5.688;2023-04-29T08:35:19;20.50;;;14.38;;
73850;SDS011;62190;51.548;5.688;2023-04-29T08:37:46;21.60;;;15.65;;
73850;SDS011;62190;51.548;5.688;2023-04-29T08:40:14;22.50;;;15.10;;
73850;SDS011;62190;51.548;5.688;2023-04-29T08:42:41;24.12;;;15.35;;
73850;SDS011;62190;51.548;5.688;2023-04-29T08:45:10;23.83;;;15.58;;
73850;SDS011;62190;51.548;5.688;2023-04-29T08:47:39;25.10;;;15.88;;
73850;SDS011;62190;51.548;5.688;2023-04-29T08:50:07;22.30;;;15.55;;
73850;SDS011;62190;51.548;5.688;2023-04-29T08:52:35;23.40;;;14.35;;
73850;SDS011;62190;51.548;5.688;2023-04-29T08:55:02;22.40;;;14.28;;
73850;SDS011;62190;51.548;5.688;2023-04-29T08:57:30;22.05;;;14.07;;
73850;SDS011;62190;51.548;5.688;2023-04-29T09:00:02;22.93;;;14.13;;
73850;SDS011;62190;51.548;5.688;2023-04-29T09:02:30;24.55;;;13.75;;
73850;SDS011;62190;51.548;5.688;2023-04-29T09:05:04;21.23;;;14.73;;
73850;SDS011;62190;51.548;5.688;2023-04-29T09:07:40;26.10;;;14.23;;
73850;SDS011;62190;51.548;5.688;2023-04-29T09:10:05;23.40;;;12.75;;
73850;SDS011;62190;51.548;5.688;2023-04-29T09:12:33;25.90;;;13.95;;
73850;SDS011;62190;51.548;5.688;2023-04-29T09:15:01;20.43;;;13.58;;
73850;SDS011;62190;51.548;5.688;2023-04-29T09:17:42;21.50;;;14.47;;
73850;SDS011;62190;51.548;5.688;2023-04-29T09:22:51;22.25;;;14.23;;
73850;SDS011;62190;51.548;5.688;2023-04-29T09:25:23;21.05;;;13.05;;
73850;SDS011;62190;51.548;5.688;2023-04-29T09:27:51;21.37;;;13.58;;
73850;SDS011;62190;51.548;5.688;2023-04-29T09:30:20;24.43;;;13.68;;
73850;SDS011;62190;51.548;5.688;2023-04-29T09:33:04;21.42;;;13.05;;
73850;SDS011;62190;51.548;5.688;2023-04-29T09:35:34;23.77;;;13.50;;
73850;SDS011;62190;51.548;5.688;2023-04-29T09:38:09;19.12;;;12.65;;
73850;SDS011;62190;51.548;5.688;2023-04-29T09:40:38;19.70;;;12.85;;
73850;SDS011;62190;51.548;5.688;2023-04-29T09:43:13;19.17;;;12.13;;
73850;SDS011;62190;51.548;5.688;2023-04-29T09:45:47;22.42;;;13.43;;
73850;SDS011;62190;51.548;5.688;2023-04-29T09:48:14;21.20;;;13.08;;
73850;SDS011;62190;51.548;5.688;2023-04-29T09:50:42;21.02;;;13.05;;
73850;SDS011;62190;51.548;5.688;2023-04-29T09:53:11;18.95;;;12.20;;
73850;SDS011;62190;51.548;5.688;2023-04-29T09:55:58;21.90;;;13.18;;
73850;SDS011;62190;51.548;5.688;2023-04-29T09:58:30;17.50;;;11.60;;
73850;SDS011;62190;51.548;5.688;2023-04-29T10:01:05;21.97;;;12.55;;
73850;SDS011;62190;51.548;5.688;2023-04-29T10:03:34;19.12;;;11.55;;
73850;SDS011;62190;51.548;5.688;2023-04-29T10:06:03;17.17;;;11.78;;
73850;SDS011;62190;51.548;5.688;2023-04-29T10:08:32;20.92;;;12.60;;
73850;SDS011;62190;51.548;5.688;2023-04-29T10:11:01;17.40;;;11.73;;
73850;SDS011;62190;51.548;5.688;2023-04-29T10:13:30;18.77;;;11.90;;
73850;SDS011;62190;51.548;5.688;2023-04-29T10:16:00;18.10;;;11.75;;
73850;SDS011;62190;51.548;5.688;2023-04-29T10:18:29;18.62;;;11.50;;
73850;SDS011;62190;51.548;5.688;2023-04-29T10:21:06;23.85;;;13.05;;
73850;SDS011;62190;51.548;5.688;2023-04-29T10:23:34;19.45;;;13.35;;
73850;SDS011;62190;51.548;5.688;2023-04-29T10:26:03;18.35;;;12.28;;
73850;SDS011;62190;51.548;5.688;2023-04-29T10:28:31;16.02;;;11.12;;
73850;SDS011;62190;51.548;5.688;2023-04-29T10:31:00;16.95;;;11.65;;
73850;SDS011;62190;51.548;5.688;2023-04-29T10:33:31;14.60;;;9.50;;
73850;SDS011;62190;51.548;5.688;2023-04-29T10:36:02;13.05;;;9.43;;
73850;SDS011;62190;51.548;5.688;2023-04-29T10:38:39;14.80;;;9.93;;
73850;SDS011;62190;51.548;5.688;2023-04-29T10:41:21;13.32;;;9.90;;
73850;SDS011;62190;51.548;5.688;2023-04-29T10:43:47;15.08;;;10.23;;
73850;SDS011;62190;51.548;5.688;2023-04-29T10:46:16;18.80;;;10.53;;
73850;SDS011;62190;51.548;5.688;2023-04-29T10:49:02;14.20;;;9.55;;
73850;SDS011;62190;51.548;5.688;2023-04-29T10:51:31;11.43;;;8.13;;
73850;SDS011;62190;51.548;5.688;2023-04-29T10:54:07;13.65;;;8.98;;
73850;SDS011;62190;51.548;5.688;2023-04-29T10:56:48;13.50;;;8.88;;
73850;SDS011;62190;51.548;5.688;2023-04-29T10:59:20;12.07;;;8.88;;
73850;SDS011;62190;51.548;5.688;2023-04-29T11:01:56;12.25;;;8.35;;
73850;SDS011;62190;51.548;5.688;2023-04-29T11:04:26;12.55;;;7.72;;
73850;SDS011;62190;51.548;5.688;2023-04-29T11:06:54;12.58;;;7.97;;
73850;SDS011;62190;51.548;5.688;2023-04-29T11:09:27;11.12;;;7.10;;
73850;SDS011;62190;51.548;5.688;2023-04-29T11:11:56;11.25;;;7.62;;
73850;SDS011;62190;51.548;5.688;2023-04-29T11:17:09;10.53;;;7.70;;
73850;SDS011;62190;51.548;5.688;2023-04-29T11:19:42;14.45;;;7.70;;
73850;SDS011;62190;51.548;5.688;2023-04-29T11:22:12;11.00;;;7.58;;
73850;SDS011;62190;51.548;5.688;2023-04-29T11:27:29;11.00;;;7.58;;
73850;SDS011;62190;51.548;5.688;2023-04-29T11:30:01;11.60;;;7.75;;
73850;SDS011;62190;51.548;5.688;2023-04-29T11:32:33;10.70;;;7.15;;
73850;SDS011;62190;51.548;5.688;2023-04-29T11:35:11;13.58;;;8.20;;
73850;SDS011;62190;51.548;5.688;2023-04-29T11:37:40;12.60;;;7.95;;
73850;SDS011;62190;51.548;5.688;2023-04-29T11:40:08;13.10;;;8.93;;
73850;SDS011;62190;51.548;5.688;2023-04-29T11:42:44;10.95;;;7.75;;
73850;SDS011;62190;51.548;5.688;2023-04-29T11:45:19;11.57;;;8.18;;
73850;SDS011;62190;51.548;5.688;2023-04-29T11:47:44;10.88;;;7.60;;
73850;SDS011;62190;51.548;5.688;2023-04-29T11:50:12;10.98;;;7.47;;
73850;SDS011;62190;51.548;5.688;2023-04-29T11:52:47;12.40;;;7.15;;
73850;SDS011;62190;51.548;5.688;2023-04-29T11:55:15;9.18;;;6.53;;
73850;SDS011;62190;51.548;5.688;2023-04-29T11:57:42;9.98;;;6.83;;
73850;SDS011;62190;51.548;5.688;2023-04-29T12:00:10;13.35;;;7.90;;
73850;SDS011;62190;51.548;5.688;2023-04-29T12:02:42;11.65;;;7.08;;
73850;SDS011;62190;51.548;5.688;2023-04-29T12:05:09;14.15;;;7.87;;
73850;SDS011;62190;51.548;5.688;2023-04-29T12:07:37;12.00;;;7.85;;
73850;SDS011;62190;51.548;5.688;2023-04-29T12:10:08;9.38;;;6.87;;
73850;SDS011;62190;51.548;5.688;2023-04-29T12:12:38;11.80;;;7.08;;
73850;SDS011;62190;51.548;5.688;2023-04-29T12:15:10;11.30;;;7.15;;
73850;SDS011;62190;51.548;5.688;2023-04-29T12:17:37;13.28;;;7.15;;
73850;SDS011;62190;51.548;5.688;2023-04-29T12:20:05;9.03;;;6.40;;
73850;SDS011;62190;51.548;5.688;2023-04-29T12:22:36;11.70;;;7.15;;
73850;SDS011;62190;51.548;5.688;2023-04-29T12:25:04;11.15;;;6.95;;
73850;SDS011;62190;51.548;5.688;2023-04-29T12:27:32;9.33;;;7.03;;
73850;SDS011;62190;51.548;5.688;2023-04-29T12:30:00;11.95;;;6.92;;
73850;SDS011;62190;51.548;5.688;2023-04-29T12:32:27;11.80;;;7.03;;
73850;SDS011;62190;51.548;5.688;2023-04-29T12:34:55;9.65;;;7.05;;
73850;SDS011;62190;51.548;5.688;2023-04-29T12:37:22;10.93;;;6.58;;
73850;SDS011;62190;51.548;5.688;2023-04-29T12:39:50;9.88;;;7.20;;
73850;SDS011;62190;51.548;5.688;2023-04-29T12:42:19;8.83;;;6.42;;
73850;SDS011;62190;51.548;5.688;2023-04-29T12:44:47;12.65;;;7.72;;
73850;SDS011;62190;51.548;5.688;2023-04-29T12:47:14;9.18;;;7.42;;
73850;SDS011;62190;51.548;5.688;2023-04-29T12:49:43;10.32;;;6.92;;
73850;SDS011;62190;51.548;5.688;2023-04-29T12:52:11;10.40;;;6.87;;
73850;SDS011;62190;51.548;5.688;2023-04-29T12:54:40;8.40;;;6.62;;
73850;SDS011;62190;51.548;5.688;2023-04-29T12:57:09;11.50;;;7.15;;
73850;SDS011;62190;51.548;5.688;2023-04-29T12:59:37;9.05;;;6.12;;
73850;SDS011;62190;51.548;5.688;2023-04-29T13:02:06;9.50;;;5.92;;
73850;SDS011;62190;51.548;5.688;2023-04-29T13:04:33;8.75;;;5.72;;
73850;SDS011;62190;51.548;5.688;2023-04-29T13:07:01;11.12;;;6.03;;
73850;SDS011;62190;51.548;5.688;2023-04-29T13:09:29;8.90;;;6.55;;
73850;SDS011;62190;51.548;5.688;2023-04-29T13:11:56;9.63;;;6.30;;
73850;SDS011;62190;51.548;5.688;2023-04-29T13:14:24;11.97;;;6.72;;
73850;SDS011;62190;51.548;5.688;2023-04-29T13:16:51;10.20;;;6.80;;
73850;SDS011;62190;51.548;5.688;2023-04-29T13:19:18;9.98;;;6.25;;
73850;SDS011;62190;51.548;5.688;2023-04-29T13:21:46;10.78;;;6.17;;
73850;SDS011;62190;51.548;5.688;2023-04-29T13:24:15;8.33;;;6.33;;
73850;SDS011;62190;51.548;5.688;2023-04-29T13:26:44;13.65;;;6.53;;
73850;SDS011;62190;51.548;5.688;2023-04-29T13:29:12;10.58;;;6.03;;
73850;SDS011;62190;51.548;5.688;2023-04-29T13:31:39;10.45;;;6.10;;
73850;SDS011;62190;51.548;5.688;2023-04-29T13:34:08;9.13;;;5.80;;
73850;SDS011;62190;51.548;5.688;2023-04-29T13:36:35;9.00;;;5.87;;
73850;SDS011;62190;51.548;5.688;2023-04-29T13:39:03;11.25;;;6.60;;
73850;SDS011;62190;51.548;5.688;2023-04-29T13:41:30;7.50;;;5.37;;
73850;SDS011;62190;51.548;5.688;2023-04-29T13:43:59;9.70;;;6.20;;
73850;SDS011;62190;51.548;5.688;2023-04-29T13:46:26;9.15;;;5.50;;
73850;SDS011;62190;51.548;5.688;2023-04-29T13:48:53;10.50;;;5.62;;
73850;SDS011;62190;51.548;5.688;2023-04-29T13:51:21;8.68;;;4.87;;
73850;SDS011;62190;51.548;5.688;2023-04-29T13:53:48;8.15;;;5.78;;
73850;SDS011;62190;51.548;5.688;2023-04-29T13:56:15;8.70;;;5.25;;
73850;SDS011;62190;51.548;5.688;2023-04-29T13:58:43;7.10;;;4.62;;
73850;SDS011;62190;51.548;5.688;2023-04-29T14:01:11;8.35;;;5.33;;
73850;SDS011;62190;51.548;5.688;2023-04-29T14:03:39;6.97;;;5.25;;
73850;SDS011;62190;51.548;5.688;2023-04-29T14:06:06;6.12;;;4.60;;
73850;SDS011;62190;51.548;5.688;2023-04-29T14:08:34;9.05;;;4.90;;
73850;SDS011;62190;51.548;5.688;2023-04-29T14:11:01;8.65;;;5.00;;
73850;SDS011;62190;51.548;5.688;2023-04-29T14:13:28;7.17;;;5.03;;
73850;SDS011;62190;51.548;5.688;2023-04-29T14:15:56;8.93;;;5.47;;
73850;SDS011;62190;51.548;5.688;2023-04-29T14:18:24;7.05;;;5.10;;
73850;SDS011;62190;51.548;5.688;2023-04-29T14:20:51;7.55;;;4.78;;
73850;SDS011;62190;51.548;5.688;2023-04-29T14:23:19;6.22;;;4.83;;
73850;SDS011;62190;51.548;5.688;2023-04-29T14:25:46;6.60;;;4.62;;
73850;SDS011;62190;51.548;5.688;2023-04-29T14:28:14;6.67;;;4.87;;
73850;SDS011;62190;51.548;5.688;2023-04-29T14:30:41;7.37;;;5.17;;
73850;SDS011;62190;51.548;5.688;2023-04-29T14:33:08;6.87;;;4.45;;
73850;SDS011;62190;51.548;5.688;2023-04-29T14:35:35;5.95;;;4.22;;
73850;SDS011;62190;51.548;5.688;2023-04-29T14:38:03;8.40;;;4.87;;
73850;SDS011;62190;51.548;5.688;2023-04-29T14:40:30;7.62;;;4.62;;
73850;SDS011;62190;51.548;5.688;2023-04-29T14:42:57;6.83;;;4.03;;
73850;SDS011;62190;51.548;5.688;2023-04-29T14:45:26;11.83;;;4.67;;
73850;SDS011;62190;51.548;5.688;2023-04-29T14:47:53;9.25;;;4.95;;
73850;SDS011;62190;51.548;5.688;2023-04-29T14:50:20;7.22;;;4.83;;
73850;SDS011;62190;51.548;5.688;2023-04-29T14:52:49;7.15;;;4.40;;
73850;SDS011;62190;51.548;5.688;2023-04-29T14:55:16;6.90;;;4.92;;
73850;SDS011;62190;51.548;5.688;2023-04-29T14:57:44;7.67;;;4.37;;
73850;SDS011;62190;51.548;5.688;2023-04-29T15:00:11;7.28;;;4.55;;
73850;SDS011;62190;51.548;5.688;2023-04-29T15:02:39;6.45;;;4.30;;